Campanya meteocatpedra

Dades de l'estació automàtica Port de Barcelona - Bocana Sud

?
?
Resum diari 16:00 TU
Dades diàries de l'estació meteorològica
Ratxa màxima del vent (10 m) 26.6 km/h - 288º 7:15 TU

El tram horari està expressat en Temps Universal (TU). Cal sumar una hora en horari d'hivern i dues en horari d'estiu per passar a l'hora oficial.

Port de Barcelona - Bocana Sud

Metadades estació meteorol´gica
Municipi El Prat de Llobregat
Comarca Baix Llobregat
Altitud 3 m
Data alta 08.04.2015
Estat actual Operativa
Dades de període
Període
TU
VVM (10 m)
km/h
DVM (10 m)
graus
VVX (10 m)
km/h
00:00 - 00:30 1.4 181 4.0
00:30 - 01:00 6.5 217 11.5
01:00 - 01:30 7.6 238 11.5
01:30 - 02:00 6.8 237 10.1
02:00 - 02:30 9.0 246 11.5
02:30 - 03:00 5.8 250 9.7
03:00 - 03:30 7.6 242 10.4
03:30 - 04:00 6.5 231 9.0
04:00 - 04:30 5.4 264 6.8
04:30 - 05:00 6.1 221 9.7
05:00 - 05:30 12.6 270 22.3
05:30 - 06:00 15.5 263 23.8
06:00 - 06:30 10.8 226 20.2
06:30 - 07:00 17.3 262 23.4
07:00 - 07:30 19.8 270 26.6
07:30 - 08:00 12.6 267 18.7
08:00 - 08:30 11.5 264 19.1
08:30 - 09:00 12.6 201 17.6
09:00 - 09:30 15.1 189 18.4
09:30 - 10:00 15.5 178 18.0
10:00 - 10:30 16.2 175 19.4
10:30 - 11:00 18.7 172 20.9
11:00 - 11:30 18.4 173 20.9
11:30 - 12:00 16.9 160 20.9
12:00 - 12:30 20.5 159 23.8
12:30 - 13:00 20.2 168 24.1
13:00 - 13:30 18.4 167 21.6
13:30 - 14:00 15.8 172 19.8
14:00 - 14:30 12.2 167 15.1
14:30 - 15:00 11.5 151 15.8
15:00 - 15:30 13.3 143 20.5
15:30 - 16:00 19.1 160 22.7
16:00 - 16:30 17.3 170 22.0
16:30 - 17:00 (s/d) (s/d) (s/d)

Les dades en taronja només han passat un control de qualitat automàtic. Resta pendent la seva validació definitiva.